sensor_id;sensor_type;location;lat;lon;timestamp;temperature;humidity
39023;DHT22;25908;51.984;5.928;2023-04-03T00:01:12;6.50;96.90
39023;DHT22;25908;51.984;5.928;2023-04-03T00:03:37;6.50;97.00
39023;DHT22;25908;51.984;5.928;2023-04-03T00:06:03;6.50;97.00
39023;DHT22;25908;51.984;5.928;2023-04-03T00:08:30;6.40;96.90
39023;DHT22;25908;51.984;5.928;2023-04-03T00:10:58;6.40;96.90
39023;DHT22;25908;51.984;5.928;2023-04-03T00:13:24;6.40;96.90
39023;DHT22;25908;51.984;5.928;2023-04-03T00:15:51;6.40;96.90
39023;DHT22;25908;51.984;5.928;2023-04-03T00:18:17;6.30;96.90
39023;DHT22;25908;51.984;5.928;2023-04-03T00:20:42;6.30;97.00
39023;DHT22;25908;51.984;5.928;2023-04-03T00:23:08;6.30;96.90
39023;DHT22;25908;51.984;5.928;2023-04-03T00:25:34;6.30;97.10
39023;DHT22;25908;51.984;5.928;2023-04-03T00:27:59;6.20;97.20
39023;DHT22;25908;51.984;5.928;2023-04-03T00:30:25;6.30;97.30
39023;DHT22;25908;51.984;5.928;2023-04-03T00:32:52;6.30;97.30
39023;DHT22;25908;51.984;5.928;2023-04-03T00:35:19;6.30;97.40
39023;DHT22;25908;51.984;5.928;2023-04-03T00:37:45;6.20;97.40
39023;DHT22;25908;51.984;5.928;2023-04-03T00:40:13;6.20;97.40
39023;DHT22;25908;51.984;5.928;2023-04-03T00:42:41;6.20;97.60
39023;DHT22;25908;51.984;5.928;2023-04-03T00:47:39;6.10;97.70
39023;DHT22;25908;51.984;5.928;2023-04-03T00:50:06;6.10;97.80
39023;DHT22;25908;51.984;5.928;2023-04-03T00:52:32;6.10;97.90
39023;DHT22;25908;51.984;5.928;2023-04-03T00:55:02;6.10;98.00
39023;DHT22;25908;51.984;5.928;2023-04-03T00:57:30;6.10;98.20
39023;DHT22;25908;51.984;5.928;2023-04-03T01:00:00;6.10;98.30
39023;DHT22;25908;51.984;5.928;2023-04-03T01:02:28;6.00;98.30
39023;DHT22;25908;51.984;5.928;2023-04-03T01:04:53;6.00;98.50
39023;DHT22;25908;51.984;5.928;2023-04-03T01:07:25;6.00;98.60
39023;DHT22;25908;51.984;5.928;2023-04-03T01:09:56;6.00;98.80
39023;DHT22;25908;51.984;5.928;2023-04-03T01:14:55;6.00;99.00
39023;DHT22;25908;51.984;5.928;2023-04-03T01:25:34;6.00;99.40
39023;DHT22;25908;51.984;5.928;2023-04-03T01:28:00;5.90;99.50
39023;DHT22;25908;51.984;5.928;2023-04-03T01:30:32;5.90;99.60
39023;DHT22;25908;51.984;5.928;2023-04-03T01:32:58;5.80;99.70
39023;DHT22;25908;51.984;5.928;2023-04-03T01:35:23;5.80;99.90
39023;DHT22;25908;51.984;5.928;2023-04-03T01:37:49;5.80;99.90
39023;DHT22;25908;51.984;5.928;2023-04-03T01:40:15;5.80;99.90
39023;DHT22;25908;51.984;5.928;2023-04-03T01:42:40;5.80;99.90
39023;DHT22;25908;51.984;5.928;2023-04-03T01:45:06;5.80;99.90
39023;DHT22;25908;51.984;5.928;2023-04-03T01:47:32;5.80;99.90
39023;DHT22;25908;51.984;5.928;2023-04-03T01:49:57;5.70;99.90
39023;DHT22;25908;51.984;5.928;2023-04-03T01:52:23;5.70;99.90
39023;DHT22;25908;51.984;5.928;2023-04-03T01:54:49;5.70;99.90
39023;DHT22;25908;51.984;5.928;2023-04-03T01:57:16;5.70;99.90
39023;DHT22;25908;51.984;5.928;2023-04-03T01:59:42;5.70;99.90
39023;DHT22;25908;51.984;5.928;2023-04-03T02:02:07;5.70;99.90
39023;DHT22;25908;51.984;5.928;2023-04-03T02:04:33;5.70;99.90
39023;DHT22;25908;51.984;5.928;2023-04-03T02:06:58;5.60;99.90
39023;DHT22;25908;51.984;5.928;2023-04-03T02:09:24;5.60;99.90
39023;DHT22;25908;51.984;5.928;2023-04-03T02:11:50;5.60;99.90
39023;DHT22;25908;51.984;5.928;2023-04-03T02:14:15;5.60;99.90
39023;DHT22;25908;51.984;5.928;2023-04-03T02:16:41;5.60;99.90
39023;DHT22;25908;51.984;5.928;2023-04-03T02:19:06;5.60;99.90
39023;DHT22;25908;51.984;5.928;2023-04-03T02:21:32;5.60;99.90
39023;DHT22;25908;51.984;5.928;2023-04-03T02:23:58;5.50;99.90
39023;DHT22;25908;51.984;5.928;2023-04-03T02:26:23;5.60;99.90
39023;DHT22;25908;51.984;5.928;2023-04-03T02:28:50;5.50;99.90
39023;DHT22;25908;51.984;5.928;2023-04-03T02:31:15;5.50;99.90
39023;DHT22;25908;51.984;5.928;2023-04-03T02:33:41;5.50;99.90
39023;DHT22;25908;51.984;5.928;2023-04-03T02:36:07;5.40;99.90
39023;DHT22;25908;51.984;5.928;2023-04-03T02:38:33;5.40;99.90
39023;DHT22;25908;51.984;5.928;2023-04-03T02:41:08;5.40;99.90
39023;DHT22;25908;51.984;5.928;2023-04-03T02:43:34;5.40;99.90
39023;DHT22;25908;51.984;5.928;2023-04-03T02:46:00;5.40;99.90
39023;DHT22;25908;51.984;5.928;2023-04-03T02:48:26;5.40;99.90
39023;DHT22;25908;51.984;5.928;2023-04-03T02:50:51;5.40;99.90
39023;DHT22;25908;51.984;5.928;2023-04-03T02:53:18;5.30;99.90
39023;DHT22;25908;51.984;5.928;2023-04-03T02:55:44;5.40;99.90
39023;DHT22;25908;51.984;5.928;2023-04-03T02:58:09;5.30;99.90
39023;DHT22;25908;51.984;5.928;2023-04-03T03:00:35;5.30;99.90
39023;DHT22;25908;51.984;5.928;2023-04-03T03:03:01;5.30;99.90
39023;DHT22;25908;51.984;5.928;2023-04-03T03:05:27;5.30;99.90
39023;DHT22;25908;51.984;5.928;2023-04-03T03:07:53;5.30;99.90
39023;DHT22;25908;51.984;5.928;2023-04-03T03:10:19;5.30;99.90
39023;DHT22;25908;51.984;5.928;2023-04-03T03:12:45;5.30;99.90
39023;DHT22;25908;51.984;5.928;2023-04-03T03:15:11;5.30;99.90
39023;DHT22;25908;51.984;5.928;2023-04-03T03:17:36;5.30;99.90
39023;DHT22;25908;51.984;5.928;2023-04-03T03:20:03;5.20;99.90
39023;DHT22;25908;51.984;5.928;2023-04-03T03:22:29;5.20;99.90
39023;DHT22;25908;51.984;5.928;2023-04-03T03:24:54;5.20;99.90
39023;DHT22;25908;51.984;5.928;2023-04-03T03:27:20;5.20;99.90
39023;DHT22;25908;51.984;5.928;2023-04-03T03:29:46;5.20;99.90
39023;DHT22;25908;51.984;5.928;2023-04-03T03:32:12;5.20;99.90
39023;DHT22;25908;51.984;5.928;2023-04-03T03:34:37;5.20;99.90
39023;DHT22;25908;51.984;5.928;2023-04-03T03:37:03;5.10;99.90
39023;DHT22;25908;51.984;5.928;2023-04-03T03:39:28;5.10;99.90
39023;DHT22;25908;51.984;5.928;2023-04-03T03:41:54;5.10;99.90
39023;DHT22;25908;51.984;5.928;2023-04-03T03:44:20;5.10;99.90
39023;DHT22;25908;51.984;5.928;2023-04-03T03:46:46;5.00;99.90
39023;DHT22;25908;51.984;5.928;2023-04-03T03:49:11;5.00;99.90
39023;DHT22;25908;51.984;5.928;2023-04-03T03:51:38;5.00;99.90
39023;DHT22;25908;51.984;5.928;2023-04-03T03:54:04;5.00;99.90
39023;DHT22;25908;51.984;5.928;2023-04-03T03:56:30;5.00;99.90
39023;DHT22;25908;51.984;5.928;2023-04-03T03:58:55;5.00;99.90
39023;DHT22;25908;51.984;5.928;2023-04-03T04:01:22;5.00;99.90
39023;DHT22;25908;51.984;5.928;2023-04-03T04:03:48;5.00;99.90
39023;DHT22;25908;51.984;5.928;2023-04-03T04:06:14;4.90;99.90
39023;DHT22;25908;51.984;5.928;2023-04-03T04:08:40;4.90;99.90
39023;DHT22;25908;51.984;5.928;2023-04-03T04:11:06;4.90;99.90
39023;DHT22;25908;51.984;5.928;2023-04-03T04:13:32;4.90;99.90
39023;DHT22;25908;51.984;5.928;2023-04-03T04:15:58;4.90;99.90
39023;DHT22;25908;51.984;5.928;2023-04-03T04:18:23;4.90;99.90
39023;DHT22;25908;51.984;5.928;2023-04-03T04:20:49;4.90;99.90
39023;DHT22;25908;51.984;5.928;2023-04-03T04:23:16;4.80;99.90
39023;DHT22;25908;51.984;5.928;2023-04-03T04:25:45;4.80;99.90
39023;DHT22;25908;51.984;5.928;2023-04-03T04:28:11;4.80;99.90
39023;DHT22;25908;51.984;5.928;2023-04-03T04:30:36;4.80;99.90
39023;DHT22;25908;51.984;5.928;2023-04-03T04:33:02;4.80;99.90
39023;DHT22;25908;51.984;5.928;2023-04-03T04:35:28;4.80;99.90
39023;DHT22;25908;51.984;5.928;2023-04-03T04:37:53;4.70;99.90
39023;DHT22;25908;51.984;5.928;2023-04-03T04:40:19;4.70;99.90
39023;DHT22;25908;51.984;5.928;2023-04-03T04:42:45;4.70;99.90
39023;DHT22;25908;51.984;5.928;2023-04-03T04:45:11;4.60;99.90
39023;DHT22;25908;51.984;5.928;2023-04-03T04:47:36;4.60;99.90
39023;DHT22;25908;51.984;5.928;2023-04-03T04:50:02;4.60;99.90
39023;DHT22;25908;51.984;5.928;2023-04-03T04:52:28;4.60;99.90
39023;DHT22;25908;51.984;5.928;2023-04-03T04:54:54;4.60;99.90
39023;DHT22;25908;51.984;5.928;2023-04-03T04:57:19;4.60;99.90
39023;DHT22;25908;51.984;5.928;2023-04-03T04:59:45;4.50;99.90
39023;DHT22;25908;51.984;5.928;2023-04-03T05:02:11;4.50;99.90
39023;DHT22;25908;51.984;5.928;2023-04-03T05:04:36;4.50;99.90
39023;DHT22;25908;51.984;5.928;2023-04-03T05:07:02;4.50;99.90
39023;DHT22;25908;51.984;5.928;2023-04-03T05:09:27;4.50;99.90
39023;DHT22;25908;51.984;5.928;2023-04-03T05:11:53;4.50;99.90
39023;DHT22;25908;51.984;5.928;2023-04-03T05:14:19;4.40;99.90
39023;DHT22;25908;51.984;5.928;2023-04-03T05:16:44;4.50;99.90
39023;DHT22;25908;51.984;5.928;2023-04-03T05:19:10;4.40;99.90
39023;DHT22;25908;51.984;5.928;2023-04-03T05:21:36;4.40;99.90
39023;DHT22;25908;51.984;5.928;2023-04-03T05:24:02;4.40;99.90
39023;DHT22;25908;51.984;5.928;2023-04-03T05:26:31;4.40;99.90
39023;DHT22;25908;51.984;5.928;2023-04-03T05:28:57;4.40;99.90
39023;DHT22;25908;51.984;5.928;2023-04-03T05:31:23;4.40;99.90
39023;DHT22;25908;51.984;5.928;2023-04-03T05:33:48;4.40;99.90
39023;DHT22;25908;51.984;5.928;2023-04-03T05:36:14;4.40;99.90
39023;DHT22;25908;51.984;5.928;2023-04-03T05:38:40;4.30;99.90
39023;DHT22;25908;51.984;5.928;2023-04-03T05:41:06;4.30;99.90
39023;DHT22;25908;51.984;5.928;2023-04-03T05:43:32;4.30;99.90
39023;DHT22;25908;51.984;5.928;2023-04-03T05:45:58;4.30;99.90
39023;DHT22;25908;51.984;5.928;2023-04-03T05:48:24;4.30;99.90
39023;DHT22;25908;51.984;5.928;2023-04-03T05:50:51;4.30;99.90
39023;DHT22;25908;51.984;5.928;2023-04-03T05:53:21;4.20;99.90
39023;DHT22;25908;51.984;5.928;2023-04-03T05:55:48;4.20;99.90
39023;DHT22;25908;51.984;5.928;2023-04-03T05:58:13;4.20;99.90
39023;DHT22;25908;51.984;5.928;2023-04-03T06:00:39;4.20;99.90
39023;DHT22;25908;51.984;5.928;2023-04-03T06:03:05;4.20;99.90
39023;DHT22;25908;51.984;5.928;2023-04-03T06:05:32;4.20;99.90
39023;DHT22;25908;51.984;5.928;2023-04-03T06:07:57;4.20;99.90
39023;DHT22;25908;51.984;5.928;2023-04-03T06:10:23;4.20;99.90
39023;DHT22;25908;51.984;5.928;2023-04-03T06:12:49;4.20;99.90
39023;DHT22;25908;51.984;5.928;2023-04-03T06:15:15;4.30;99.90
39023;DHT22;25908;51.984;5.928;2023-04-03T06:17:42;4.20;99.90
39023;DHT22;25908;51.984;5.928;2023-04-03T06:20:08;4.20;99.90
39023;DHT22;25908;51.984;5.928;2023-04-03T06:22:34;4.30;99.90
39023;DHT22;25908;51.984;5.928;2023-04-03T06:25:01;4.30;99.90
39023;DHT22;25908;51.984;5.928;2023-04-03T06:27:27;4.30;99.90
39023;DHT22;25908;51.984;5.928;2023-04-03T06:29:52;4.30;99.90
39023;DHT22;25908;51.984;5.928;2023-04-03T06:32:18;4.30;99.90
39023;DHT22;25908;51.984;5.928;2023-04-03T06:34:43;4.30;99.90
39023;DHT22;25908;51.984;5.928;2023-04-03T06:37:20;4.30;99.90
39023;DHT22;25908;51.984;5.928;2023-04-03T06:39:47;4.30;99.90
39023;DHT22;25908;51.984;5.928;2023-04-03T06:42:13;4.30;99.90
39023;DHT22;25908;51.984;5.928;2023-04-03T06:44:39;4.40;99.90
39023;DHT22;25908;51.984;5.928;2023-04-03T06:47:04;4.40;99.90
39023;DHT22;25908;51.984;5.928;2023-04-03T06:49:31;4.50;99.90
39023;DHT22;25908;51.984;5.928;2023-04-03T06:51:57;4.60;99.90
39023;DHT22;25908;51.984;5.928;2023-04-03T06:54:23;4.70;99.90
39023;DHT22;25908;51.984;5.928;2023-04-03T06:56:48;5.00;99.90
39023;DHT22;25908;51.984;5.928;2023-04-03T06:59:14;5.20;99.90
39023;DHT22;25908;51.984;5.928;2023-04-03T07:01:41;5.50;99.90
39023;DHT22;25908;51.984;5.928;2023-04-03T07:04:07;5.80;99.90
39023;DHT22;25908;51.984;5.928;2023-04-03T07:06:33;6.20;99.90
39023;DHT22;25908;51.984;5.928;2023-04-03T07:09:00;6.50;99.10
39023;DHT22;25908;51.984;5.928;2023-04-03T07:11:26;6.70;98.30
39023;DHT22;25908;51.984;5.928;2023-04-03T07:13:52;7.00;97.60
39023;DHT22;25908;51.984;5.928;2023-04-03T07:16:19;7.40;97.10
39023;DHT22;25908;51.984;5.928;2023-04-03T07:18:45;7.80;96.30
39023;DHT22;25908;51.984;5.928;2023-04-03T07:21:11;8.20;95.10
39023;DHT22;25908;51.984;5.928;2023-04-03T07:23:37;8.60;94.00
39023;DHT22;25908;51.984;5.928;2023-04-03T07:26:03;8.90;92.40
39023;DHT22;25908;51.984;5.928;2023-04-03T07:28:28;9.20;91.50
39023;DHT22;25908;51.984;5.928;2023-04-03T07:31:01;9.40;90.70
39023;DHT22;25908;51.984;5.928;2023-04-03T07:33:27;9.80;89.00
39023;DHT22;25908;51.984;5.928;2023-04-03T07:35:53;10.10;87.40
39023;DHT22;25908;51.984;5.928;2023-04-03T07:38:18;10.30;85.10
39023;DHT22;25908;51.984;5.928;2023-04-03T07:40:48;10.50;83.30
39023;DHT22;25908;51.984;5.928;2023-04-03T07:43:16;10.80;81.30
39023;DHT22;25908;51.984;5.928;2023-04-03T07:45:42;10.90;78.50
39023;DHT22;25908;51.984;5.928;2023-04-03T07:48:12;11.00;77.00
39023;DHT22;25908;51.984;5.928;2023-04-03T07:50:40;11.00;76.40
39023;DHT22;25908;51.984;5.928;2023-04-03T07:53:06;11.20;75.10
39023;DHT22;25908;51.984;5.928;2023-04-03T07:55:33;11.40;73.40
39023;DHT22;25908;51.984;5.928;2023-04-03T07:57:58;11.60;72.90
39023;DHT22;25908;51.984;5.928;2023-04-03T08:00:24;11.90;71.30
39023;DHT22;25908;51.984;5.928;2023-04-03T08:02:50;12.00;69.70
39023;DHT22;25908;51.984;5.928;2023-04-03T08:05:20;12.10;69.10
39023;DHT22;25908;51.984;5.928;2023-04-03T08:07:47;12.30;68.20
39023;DHT22;25908;51.984;5.928;2023-04-03T08:10:13;12.50;66.80
39023;DHT22;25908;51.984;5.928;2023-04-03T08:12:40;12.60;64.70
39023;DHT22;25908;51.984;5.928;2023-04-03T08:15:06;12.70;63.60
39023;DHT22;25908;51.984;5.928;2023-04-03T08:17:33;12.80;63.00
39023;DHT22;25908;51.984;5.928;2023-04-03T08:19:59;13.10;62.10
39023;DHT22;25908;51.984;5.928;2023-04-03T08:22:24;13.20;60.10
39023;DHT22;25908;51.984;5.928;2023-04-03T08:24:50;13.30;59.50
39023;DHT22;25908;51.984;5.928;2023-04-03T08:27:16;13.30;58.70
39023;DHT22;25908;51.984;5.928;2023-04-03T08:29:41;13.40;57.70
39023;DHT22;25908;51.984;5.928;2023-04-03T08:32:07;13.50;57.30
39023;DHT22;25908;51.984;5.928;2023-04-03T08:34:32;13.70;56.70
39023;DHT22;25908;51.984;5.928;2023-04-03T08:37:02;13.70;55.20
39023;DHT22;25908;51.984;5.928;2023-04-03T08:39:28;13.70;54.70
39023;DHT22;25908;51.984;5.928;2023-04-03T08:41:55;13.80;54.80
39023;DHT22;25908;51.984;5.928;2023-04-03T08:44:59;13.90;54.70
39023;DHT22;25908;51.984;5.928;2023-04-03T08:47:38;14.10;52.90
39023;DHT22;25908;51.984;5.928;2023-04-03T08:50:10;14.10;51.20
39023;DHT22;25908;51.984;5.928;2023-04-03T08:52:45;14.10;50.40
39023;DHT22;25908;51.984;5.928;2023-04-03T08:55:16;14.00;48.30
39023;DHT22;25908;51.984;5.928;2023-04-03T08:57:45;13.90;48.00
39023;DHT22;25908;51.984;5.928;2023-04-03T09:02:51;14.10;48.10
39023;DHT22;25908;51.984;5.928;2023-04-03T09:05:20;14.20;47.30
39023;DHT22;25908;51.984;5.928;2023-04-03T09:08:14;14.30;45.60
39023;DHT22;25908;51.984;5.928;2023-04-03T09:10:44;14.20;45.40
39023;DHT22;25908;51.984;5.928;2023-04-03T09:13:21;14.30;44.80
39023;DHT22;25908;51.984;5.928;2023-04-03T09:15:50;14.30;45.10
39023;DHT22;25908;51.984;5.928;2023-04-03T09:18:23;14.50;44.40
39023;DHT22;25908;51.984;5.928;2023-04-03T09:23:43;14.20;42.50
39023;DHT22;25908;51.984;5.928;2023-04-03T09:26:17;14.20;41.10
39023;DHT22;25908;51.984;5.928;2023-04-03T09:28:45;14.10;40.80
39023;DHT22;25908;51.984;5.928;2023-04-03T09:34:05;14.00;40.30
39023;DHT22;25908;51.984;5.928;2023-04-03T09:36:44;14.00;41.10
39023;DHT22;25908;51.984;5.928;2023-04-03T09:39:16;14.10;41.30
39023;DHT22;25908;51.984;5.928;2023-04-03T09:41:56;14.20;40.40
39023;DHT22;25908;51.984;5.928;2023-04-03T09:44:25;14.00;39.30
39023;DHT22;25908;51.984;5.928;2023-04-03T09:46:51;13.80;39.70
39023;DHT22;25908;51.984;5.928;2023-04-03T09:49:18;13.70;38.80
39023;DHT22;25908;51.984;5.928;2023-04-03T09:51:44;13.50;38.80
39023;DHT22;25908;51.984;5.928;2023-04-03T09:54:35;13.30;38.30
39023;DHT22;25908;51.984;5.928;2023-04-03T09:57:23;13.10;38.90
39023;DHT22;25908;51.984;5.928;2023-04-03T09:59:59;13.10;39.90
39023;DHT22;25908;51.984;5.928;2023-04-03T10:02:39;13.10;39.10
39023;DHT22;25908;51.984;5.928;2023-04-03T10:05:27;13.10;39.40
39023;DHT22;25908;51.984;5.928;2023-04-03T10:10:32;12.90;38.30
39023;DHT22;25908;51.984;5.928;2023-04-03T10:13:07;12.70;38.60
39023;DHT22;25908;51.984;5.928;2023-04-03T10:16:01;12.50;39.90
39023;DHT22;25908;51.984;5.928;2023-04-03T10:21:04;12.70;39.80
39023;DHT22;25908;51.984;5.928;2023-04-03T10:24:04;12.50;39.60
39023;DHT22;25908;51.984;5.928;2023-04-03T10:38:04;11.80;41.90
39023;DHT22;25908;51.984;5.928;2023-04-03T10:43:09;11.60;41.20
39023;DHT22;25908;51.984;5.928;2023-04-03T10:46:02;11.60;42.40
39023;DHT22;25908;51.984;5.928;2023-04-03T10:54:25;11.80;43.50
39023;DHT22;25908;51.984;5.928;2023-04-03T10:56:57;11.80;43.10
39023;DHT22;25908;51.984;5.928;2023-04-03T10:59:41;11.90;43.50
39023;DHT22;25908;51.984;5.928;2023-04-03T11:02:30;12.00;43.90
39023;DHT22;25908;51.984;5.928;2023-04-03T11:07:50;11.90;41.70
39023;DHT22;25908;51.984;5.928;2023-04-03T11:10:25;11.80;42.20
39023;DHT22;25908;51.984;5.928;2023-04-03T11:13:33;11.80;43.30
39023;DHT22;25908;51.984;5.928;2023-04-03T11:15:59;12.00;42.90
39023;DHT22;25908;51.984;5.928;2023-04-03T11:18:31;12.10;42.40
39023;DHT22;25908;51.984;5.928;2023-04-03T11:21:04;12.10;42.00
39023;DHT22;25908;51.984;5.928;2023-04-03T11:23:38;12.10;41.80
39023;DHT22;25908;51.984;5.928;2023-04-03T11:26:15;12.10;40.80
39023;DHT22;25908;51.984;5.928;2023-04-03T11:28:42;12.00;40.40
39023;DHT22;25908;51.984;5.928;2023-04-03T11:36:30;11.80;42.30
39023;DHT22;25908;51.984;5.928;2023-04-03T11:39:02;11.80;42.50
39023;DHT22;25908;51.984;5.928;2023-04-03T11:41:33;11.90;41.70
39023;DHT22;25908;51.984;5.928;2023-04-03T11:46:54;11.60;42.10
39023;DHT22;25908;51.984;5.928;2023-04-03T11:49:55;11.60;43.10
39023;DHT22;25908;51.984;5.928;2023-04-03T11:57:49;11.60;43.20
39023;DHT22;25908;51.984;5.928;2023-04-03T12:05:52;11.60;43.30
39023;DHT22;25908;51.984;5.928;2023-04-03T12:16:29;11.20;43.60
39023;DHT22;25908;51.984;5.928;2023-04-03T12:26:47;11.10;45.40
39023;DHT22;25908;51.984;5.928;2023-04-03T12:29:27;11.10;46.00
39023;DHT22;25908;51.984;5.928;2023-04-03T12:48:57;10.60;45.70
39023;DHT22;25908;51.984;5.928;2023-04-03T12:51:40;10.50;45.50
39023;DHT22;25908;51.984;5.928;2023-04-03T12:54:16;10.40;45.70
39023;DHT22;25908;51.984;5.928;2023-04-03T12:56:43;10.30;45.80
39023;DHT22;25908;51.984;5.928;2023-04-03T12:59:15;10.30;45.50
39023;DHT22;25908;51.984;5.928;2023-04-03T13:01:41;10.30;46.10
39023;DHT22;25908;51.984;5.928;2023-04-03T13:04:12;10.30;46.00
39023;DHT22;25908;51.984;5.928;2023-04-03T13:06:43;10.30;46.20
39023;DHT22;25908;51.984;5.928;2023-04-03T13:09:24;10.20;46.20
39023;DHT22;25908;51.984;5.928;2023-04-03T13:12:00;10.30;46.70
39023;DHT22;25908;51.984;5.928;2023-04-03T13:14:27;10.30;46.90
39023;DHT22;25908;51.984;5.928;2023-04-03T13:16:58;10.30;47.00
39023;DHT22;25908;51.984;5.928;2023-04-03T13:19:28;10.30;46.60
39023;DHT22;25908;51.984;5.928;2023-04-03T13:21:59;10.20;46.30
39023;DHT22;25908;51.984;5.928;2023-04-03T13:24:26;10.10;46.00
39023;DHT22;25908;51.984;5.928;2023-04-03T13:26:52;10.10;47.20
39023;DHT22;25908;51.984;5.928;2023-04-03T13:29:28;10.10;47.20
39023;DHT22;25908;51.984;5.928;2023-04-03T13:31:55;10.10;47.50
39023;DHT22;25908;51.984;5.928;2023-04-03T13:34:22;10.10;47.70
39023;DHT22;25908;51.984;5.928;2023-04-03T13:41:46;10.10;47.60
39023;DHT22;25908;51.984;5.928;2023-04-03T13:46:52;10.10;47.60
39023;DHT22;25908;51.984;5.928;2023-04-03T13:51:59;10.10;47.90
39023;DHT22;25908;51.984;5.928;2023-04-03T13:54:35;10.10;48.30
39023;DHT22;25908;51.984;5.928;2023-04-03T13:57:03;10.10;48.50
39023;DHT22;25908;51.984;5.928;2023-04-03T13:59:34;10.10;48.50
39023;DHT22;25908;51.984;5.928;2023-04-03T14:07:14;10.10;48.90
39023;DHT22;25908;51.984;5.928;2023-04-03T14:09:40;10.10;49.10
39023;DHT22;25908;51.984;5.928;2023-04-03T14:12:24;10.10;49.10
39023;DHT22;25908;51.984;5.928;2023-04-03T14:14:51;10.00;49.40
39023;DHT22;25908;51.984;5.928;2023-04-03T14:17:21;10.00;49.20
39023;DHT22;25908;51.984;5.928;2023-04-03T14:19:49;10.00;49.30
39023;DHT22;25908;51.984;5.928;2023-04-03T14:22:19;10.10;49.30
39023;DHT22;25908;51.984;5.928;2023-04-03T14:24:47;10.10;49.60
39023;DHT22;25908;51.984;5.928;2023-04-03T14:27:44;10.10;49.70
39023;DHT22;25908;51.984;5.928;2023-04-03T14:30:23;10.00;49.90
39023;DHT22;25908;51.984;5.928;2023-04-03T14:32:49;10.00;50.00
39023;DHT22;25908;51.984;5.928;2023-04-03T14:35:16;10.00;50.10
39023;DHT22;25908;51.984;5.928;2023-04-03T14:37:42;10.00;50.30
39023;DHT22;25908;51.984;5.928;2023-04-03T14:40:16;9.90;50.30
39023;DHT22;25908;51.984;5.928;2023-04-03T14:42:42;9.90;50.20
39023;DHT22;25908;51.984;5.928;2023-04-03T14:45:10;9.90;50.50
39023;DHT22;25908;51.984;5.928;2023-04-03T14:47:46;9.80;50.60
39023;DHT22;25908;51.984;5.928;2023-04-03T14:50:19;9.70;51.20
39023;DHT22;25908;51.984;5.928;2023-04-03T14:52:48;9.70;51.90
39023;DHT22;25908;51.984;5.928;2023-04-03T14:55:19;9.70;52.40
39023;DHT22;25908;51.984;5.928;2023-04-03T14:57:45;9.70;52.70
39023;DHT22;25908;51.984;5.928;2023-04-03T15:00:16;9.70;52.90
39023;DHT22;25908;51.984;5.928;2023-04-03T15:02:42;9.70;52.60
39023;DHT22;25908;51.984;5.928;2023-04-03T15:05:10;9.70;52.10
39023;DHT22;25908;51.984;5.928;2023-04-03T15:07:38;9.60;52.40
39023;DHT22;25908;51.984;5.928;2023-04-03T15:10:33;9.60;52.90
39023;DHT22;25908;51.984;5.928;2023-04-03T15:12:59;9.60;53.30
39023;DHT22;25908;51.984;5.928;2023-04-03T15:15:29;9.70;53.50
39023;DHT22;25908;51.984;5.928;2023-04-03T15:17:56;9.70;53.40
39023;DHT22;25908;51.984;5.928;2023-04-03T15:20:25;9.70;53.40
39023;DHT22;25908;51.984;5.928;2023-04-03T15:22:51;9.70;53.40
39023;DHT22;25908;51.984;5.928;2023-04-03T15:25:17;9.70;53.40
39023;DHT22;25908;51.984;5.928;2023-04-03T15:27:44;9.80;53.50
39023;DHT22;25908;51.984;5.928;2023-04-03T15:30:18;9.80;53.50
39023;DHT22;25908;51.984;5.928;2023-04-03T15:32:45;9.80;53.20
39023;DHT22;25908;51.984;5.928;2023-04-03T15:35:10;9.90;53.30
39023;DHT22;25908;51.984;5.928;2023-04-03T15:37:36;9.90;53.50
39023;DHT22;25908;51.984;5.928;2023-04-03T15:40:03;9.90;53.30
39023;DHT22;25908;51.984;5.928;2023-04-03T15:42:29;9.90;53.20
39023;DHT22;25908;51.984;5.928;2023-04-03T15:44:55;9.90;53.30
39023;DHT22;25908;51.984;5.928;2023-04-03T15:47:21;9.90;53.80
39023;DHT22;25908;51.984;5.928;2023-04-03T15:49:46;9.90;54.00
39023;DHT22;25908;51.984;5.928;2023-04-03T15:52:12;9.90;54.00
39023;DHT22;25908;51.984;5.928;2023-04-03T15:54:37;9.80;53.60
39023;DHT22;25908;51.984;5.928;2023-04-03T15:57:03;9.80;53.40
39023;DHT22;25908;51.984;5.928;2023-04-03T15:59:28;9.80;53.20
39023;DHT22;25908;51.984;5.928;2023-04-03T16:01:56;9.70;53.20
39023;DHT22;25908;51.984;5.928;2023-04-03T16:04:22;9.70;53.50
39023;DHT22;25908;51.984;5.928;2023-04-03T16:06:48;9.70;53.70
39023;DHT22;25908;51.984;5.928;2023-04-03T16:09:14;9.80;54.00
39023;DHT22;25908;51.984;5.928;2023-04-03T16:11:40;9.70;53.60
39023;DHT22;25908;51.984;5.928;2023-04-03T16:14:07;9.70;53.90
39023;DHT22;25908;51.984;5.928;2023-04-03T16:16:33;9.70;54.30
39023;DHT22;25908;51.984;5.928;2023-04-03T16:18:59;9.70;54.40
39023;DHT22;25908;51.984;5.928;2023-04-03T16:21:24;9.60;54.40
39023;DHT22;25908;51.984;5.928;2023-04-03T16:23:50;9.60;54.70
39023;DHT22;25908;51.984;5.928;2023-04-03T16:26:16;9.60;54.80
39023;DHT22;25908;51.984;5.928;2023-04-03T16:28:43;9.70;55.20
39023;DHT22;25908;51.984;5.928;2023-04-03T16:31:09;9.70;55.10
39023;DHT22;25908;51.984;5.928;2023-04-03T16:33:34;9.70;54.90
39023;DHT22;25908;51.984;5.928;2023-04-03T16:36:00;9.70;55.10
39023;DHT22;25908;51.984;5.928;2023-04-03T16:38:26;9.70;55.20
39023;DHT22;25908;51.984;5.928;2023-04-03T16:40:52;9.70;54.90
39023;DHT22;25908;51.984;5.928;2023-04-03T16:43:21;9.70;55.10
39023;DHT22;25908;51.984;5.928;2023-04-03T16:45:47;9.70;55.20
39023;DHT22;25908;51.984;5.928;2023-04-03T16:48:13;9.70;55.30
39023;DHT22;25908;51.984;5.928;2023-04-03T16:50:39;9.70;55.30
39023;DHT22;25908;51.984;5.928;2023-04-03T16:53:04;9.70;55.50
39023;DHT22;25908;51.984;5.928;2023-04-03T16:55:33;9.70;55.20
39023;DHT22;25908;51.984;5.928;2023-04-03T16:57:59;9.60;54.90
39023;DHT22;25908;51.984;5.928;2023-04-03T17:00:24;9.60;55.10
39023;DHT22;25908;51.984;5.928;2023-04-03T17:02:50;9.60;55.70
39023;DHT22;25908;51.984;5.928;2023-04-03T17:05:16;9.60;55.00
39023;DHT22;25908;51.984;5.928;2023-04-03T17:07:41;9.50;55.10
39023;DHT22;25908;51.984;5.928;2023-04-03T17:10:07;9.50;55.20
39023;DHT22;25908;51.984;5.928;2023-04-03T17:12:33;9.40;55.30
39023;DHT22;25908;51.984;5.928;2023-04-03T17:14:58;9.40;55.50
39023;DHT22;25908;51.984;5.928;2023-04-03T17:17:25;9.40;55.80
39023;DHT22;25908;51.984;5.928;2023-04-03T17:19:51;9.40;55.90
39023;DHT22;25908;51.984;5.928;2023-04-03T17:22:19;9.30;56.00
39023;DHT22;25908;51.984;5.928;2023-04-03T17:24:45;9.30;56.20
39023;DHT22;25908;51.984;5.928;2023-04-03T17:27:10;9.30;56.50
39023;DHT22;25908;51.984;5.928;2023-04-03T17:29:36;9.30;56.20
39023;DHT22;25908;51.984;5.928;2023-04-03T17:32:01;9.20;56.20
39023;DHT22;25908;51.984;5.928;2023-04-03T17:34:27;9.20;56.20
39023;DHT22;25908;51.984;5.928;2023-04-03T17:36:53;9.20;56.30
39023;DHT22;25908;51.984;5.928;2023-04-03T17:39:19;9.20;56.40
39023;DHT22;25908;51.984;5.928;2023-04-03T17:41:45;9.10;56.50
39023;DHT22;25908;51.984;5.928;2023-04-03T17:44:11;9.10;56.50